sensor_id;sensor_type;location;lat;lon;timestamp;temperature;humidity
306;DHT22;137;48.578;9.180;2022-07-29T00:01:47;20.50;98.20
306;DHT22;137;48.578;9.180;2022-07-29T00:04:15;20.50;98.20
306;DHT22;137;48.578;9.180;2022-07-29T00:06:57;20.50;98.20
306;DHT22;137;48.578;9.180;2022-07-29T00:09:23;20.40;98.20
306;DHT22;137;48.578;9.180;2022-07-29T00:11:52;20.40;98.20
306;DHT22;137;48.578;9.180;2022-07-29T00:14:19;20.30;98.20
306;DHT22;137;48.578;9.180;2022-07-29T00:16:46;20.20;98.20
306;DHT22;137;48.578;9.180;2022-07-29T00:19:13;20.20;98.20
306;DHT22;137;48.578;9.180;2022-07-29T00:21:40;20.10;98.20
306;DHT22;137;48.578;9.180;2022-07-29T00:24:07;20.10;98.20
306;DHT22;137;48.578;9.180;2022-07-29T00:26:34;20.00;98.20
306;DHT22;137;48.578;9.180;2022-07-29T00:29:03;19.90;98.20
306;DHT22;137;48.578;9.180;2022-07-29T00:31:31;19.90;98.20
306;DHT22;137;48.578;9.180;2022-07-29T00:33:57;19.80;98.20
306;DHT22;137;48.578;9.180;2022-07-29T00:36:24;19.70;98.20
306;DHT22;137;48.578;9.180;2022-07-29T00:38:51;19.70;98.20
306;DHT22;137;48.578;9.180;2022-07-29T00:41:18;19.60;98.20
306;DHT22;137;48.578;9.180;2022-07-29T00:43:45;19.60;98.20
306;DHT22;137;48.578;9.180;2022-07-29T00:46:13;19.40;98.20
306;DHT22;137;48.578;9.180;2022-07-29T00:48:40;19.40;98.20
306;DHT22;137;48.578;9.180;2022-07-29T00:51:07;19.40;98.20
306;DHT22;137;48.578;9.180;2022-07-29T00:53:35;19.30;98.20
306;DHT22;137;48.578;9.180;2022-07-29T00:56:03;19.20;98.20
306;DHT22;137;48.578;9.180;2022-07-29T00:58:31;19.20;98.20
306;DHT22;137;48.578;9.180;2022-07-29T01:00:58;19.20;98.20
306;DHT22;137;48.578;9.180;2022-07-29T01:03:26;19.20;98.20
306;DHT22;137;48.578;9.180;2022-07-29T01:05:54;19.20;98.20
306;DHT22;137;48.578;9.180;2022-07-29T01:08:23;19.20;98.20
306;DHT22;137;48.578;9.180;2022-07-29T01:10:51;19.20;98.20
306;DHT22;137;48.578;9.180;2022-07-29T01:13:19;19.20;98.20
306;DHT22;137;48.578;9.180;2022-07-29T01:15:51;19.10;98.20
306;DHT22;137;48.578;9.180;2022-07-29T01:18:23;19.10;98.20
306;DHT22;137;48.578;9.180;2022-07-29T01:21:15;19.10;98.20
306;DHT22;137;48.578;9.180;2022-07-29T01:24:03;19.10;98.20
306;DHT22;137;48.578;9.180;2022-07-29T01:26:45;19.10;98.20
306;DHT22;137;48.578;9.180;2022-07-29T01:29:21;19.10;98.20
306;DHT22;137;48.578;9.180;2022-07-29T01:31:55;19.10;98.20
306;DHT22;137;48.578;9.180;2022-07-29T01:34:27;19.10;98.20
306;DHT22;137;48.578;9.180;2022-07-29T01:37:03;19.10;98.20
306;DHT22;137;48.578;9.180;2022-07-29T01:39:33;19.00;98.20
306;DHT22;137;48.578;9.180;2022-07-29T01:42:09;19.00;98.20
306;DHT22;137;48.578;9.180;2022-07-29T01:44:46;19.00;98.20
306;DHT22;137;48.578;9.180;2022-07-29T01:47:19;18.90;98.20
306;DHT22;137;48.578;9.180;2022-07-29T01:49:50;19.00;98.20
306;DHT22;137;48.578;9.180;2022-07-29T01:52:21;19.00;98.20
306;DHT22;137;48.578;9.180;2022-07-29T01:54:54;19.00;98.20
306;DHT22;137;48.578;9.180;2022-07-29T01:57:27;19.00;98.20
306;DHT22;137;48.578;9.180;2022-07-29T01:59:57;19.00;98.20
306;DHT22;137;48.578;9.180;2022-07-29T02:02:26;19.00;98.20
306;DHT22;137;48.578;9.180;2022-07-29T02:04:54;19.00;98.20
306;DHT22;137;48.578;9.180;2022-07-29T02:07:24;19.00;98.20
306;DHT22;137;48.578;9.180;2022-07-29T02:09:53;19.00;98.20
306;DHT22;137;48.578;9.180;2022-07-29T02:12:22;19.00;98.20
306;DHT22;137;48.578;9.180;2022-07-29T02:14:52;19.10;98.20
306;DHT22;137;48.578;9.180;2022-07-29T02:17:25;19.00;98.20
306;DHT22;137;48.578;9.180;2022-07-29T02:19:56;19.00;98.20
306;DHT22;137;48.578;9.180;2022-07-29T02:22:25;18.90;98.20
306;DHT22;137;48.578;9.180;2022-07-29T02:24:53;18.90;98.20
306;DHT22;137;48.578;9.180;2022-07-29T02:27:22;18.90;98.20
306;DHT22;137;48.578;9.180;2022-07-29T02:29:50;18.80;98.20
306;DHT22;137;48.578;9.180;2022-07-29T02:32:20;18.80;98.20
306;DHT22;137;48.578;9.180;2022-07-29T02:34:48;18.80;98.20
306;DHT22;137;48.578;9.180;2022-07-29T02:37:16;18.70;98.20
306;DHT22;137;48.578;9.180;2022-07-29T02:39:44;18.70;98.20
306;DHT22;137;48.578;9.180;2022-07-29T02:42:13;18.70;98.20
306;DHT22;137;48.578;9.180;2022-07-29T02:44:42;18.60;98.20
306;DHT22;137;48.578;9.180;2022-07-29T02:47:13;18.60;98.20
306;DHT22;137;48.578;9.180;2022-07-29T02:49:50;18.60;98.20
306;DHT22;137;48.578;9.180;2022-07-29T02:52:23;18.70;98.20
306;DHT22;137;48.578;9.180;2022-07-29T02:54:55;18.60;98.20
306;DHT22;137;48.578;9.180;2022-07-29T02:57:30;18.60;98.20
306;DHT22;137;48.578;9.180;2022-07-29T03:00:02;18.50;98.20
306;DHT22;137;48.578;9.180;2022-07-29T03:02:34;18.50;98.20
306;DHT22;137;48.578;9.180;2022-07-29T03:05:03;18.50;98.20
306;DHT22;137;48.578;9.180;2022-07-29T03:07:31;18.50;98.20
306;DHT22;137;48.578;9.180;2022-07-29T03:10:00;18.50;98.20
306;DHT22;137;48.578;9.180;2022-07-29T03:12:28;18.40;98.20
306;DHT22;137;48.578;9.180;2022-07-29T03:14:56;18.40;98.20
306;DHT22;137;48.578;9.180;2022-07-29T03:17:24;18.30;98.20
306;DHT22;137;48.578;9.180;2022-07-29T03:19:51;18.30;98.20
306;DHT22;137;48.578;9.180;2022-07-29T03:22:20;18.30;98.20
306;DHT22;137;48.578;9.180;2022-07-29T03:24:47;18.20;98.20
306;DHT22;137;48.578;9.180;2022-07-29T03:27:14;18.10;98.20
306;DHT22;137;48.578;9.180;2022-07-29T03:29:40;18.00;98.20
306;DHT22;137;48.578;9.180;2022-07-29T03:32:07;18.00;98.20
306;DHT22;137;48.578;9.180;2022-07-29T03:34:35;18.00;98.20
306;DHT22;137;48.578;9.180;2022-07-29T03:37:04;18.00;98.20
306;DHT22;137;48.578;9.180;2022-07-29T03:39:36;17.90;98.20
306;DHT22;137;48.578;9.180;2022-07-29T03:42:07;17.90;98.20
306;DHT22;137;48.578;9.180;2022-07-29T03:44:35;17.90;98.20
306;DHT22;137;48.578;9.180;2022-07-29T03:47:04;17.80;98.20
306;DHT22;137;48.578;9.180;2022-07-29T03:49:36;17.80;98.20
306;DHT22;137;48.578;9.180;2022-07-29T03:52:04;17.80;98.20
306;DHT22;137;48.578;9.180;2022-07-29T03:54:32;17.80;98.20
306;DHT22;137;48.578;9.180;2022-07-29T03:57:01;17.80;98.20
306;DHT22;137;48.578;9.180;2022-07-29T03:59:28;17.80;98.20
306;DHT22;137;48.578;9.180;2022-07-29T04:01:57;17.80;98.20
306;DHT22;137;48.578;9.180;2022-07-29T04:04:24;17.80;98.20
306;DHT22;137;48.578;9.180;2022-07-29T04:06:51;17.80;98.20
306;DHT22;137;48.578;9.180;2022-07-29T04:09:18;17.80;98.20
306;DHT22;137;48.578;9.180;2022-07-29T04:11:46;17.90;98.20
306;DHT22;137;48.578;9.180;2022-07-29T04:14:13;17.90;98.20
306;DHT22;137;48.578;9.180;2022-07-29T04:16:40;17.90;98.20
306;DHT22;137;48.578;9.180;2022-07-29T04:19:07;18.00;98.20
306;DHT22;137;48.578;9.180;2022-07-29T04:21:37;18.00;98.20
306;DHT22;137;48.578;9.180;2022-07-29T04:24:04;18.10;98.20
306;DHT22;137;48.578;9.180;2022-07-29T04:26:31;18.20;98.20
306;DHT22;137;48.578;9.180;2022-07-29T04:28:59;18.20;98.20
306;DHT22;137;48.578;9.180;2022-07-29T04:31:26;18.30;98.20
306;DHT22;137;48.578;9.180;2022-07-29T04:33:53;18.30;98.20
306;DHT22;137;48.578;9.180;2022-07-29T04:36:20;18.40;98.20
306;DHT22;137;48.578;9.180;2022-07-29T04:38:46;18.50;98.20
306;DHT22;137;48.578;9.180;2022-07-29T04:41:13;18.50;98.20
306;DHT22;137;48.578;9.180;2022-07-29T04:43:40;18.50;98.20
306;DHT22;137;48.578;9.180;2022-07-29T04:46:08;18.60;98.20
306;DHT22;137;48.578;9.180;2022-07-29T04:48:35;18.70;98.20
306;DHT22;137;48.578;9.180;2022-07-29T04:51:02;18.80;98.20
306;DHT22;137;48.578;9.180;2022-07-29T04:53:29;18.90;98.20
306;DHT22;137;48.578;9.180;2022-07-29T04:55:56;19.00;98.20
306;DHT22;137;48.578;9.180;2022-07-29T04:58:22;19.40;98.20
306;DHT22;137;48.578;9.180;2022-07-29T05:00:49;19.80;98.20
306;DHT22;137;48.578;9.180;2022-07-29T05:03:18;20.30;98.20
306;DHT22;137;48.578;9.180;2022-07-29T05:05:45;20.80;98.20
306;DHT22;137;48.578;9.180;2022-07-29T05:08:11;21.10;98.20
306;DHT22;137;48.578;9.180;2022-07-29T05:10:38;21.50;98.20
306;DHT22;137;48.578;9.180;2022-07-29T05:13:05;21.80;98.20
306;DHT22;137;48.578;9.180;2022-07-29T05:15:33;21.80;98.20
306;DHT22;137;48.578;9.180;2022-07-29T05:18:00;21.70;98.20
306;DHT22;137;48.578;9.180;2022-07-29T05:20:32;21.80;98.20
306;DHT22;137;48.578;9.180;2022-07-29T05:23:01;21.80;98.20
306;DHT22;137;48.578;9.180;2022-07-29T05:25:29;21.90;98.20
306;DHT22;137;48.578;9.180;2022-07-29T05:27:56;22.30;98.20
306;DHT22;137;48.578;9.180;2022-07-29T05:30:24;22.60;98.20
306;DHT22;137;48.578;9.180;2022-07-29T05:32:51;22.60;98.20
306;DHT22;137;48.578;9.180;2022-07-29T05:35:18;22.60;98.20
306;DHT22;137;48.578;9.180;2022-07-29T05:37:46;22.30;98.20
306;DHT22;137;48.578;9.180;2022-07-29T05:40:13;22.30;98.20
306;DHT22;137;48.578;9.180;2022-07-29T05:42:40;22.20;98.20
306;DHT22;137;48.578;9.180;2022-07-29T05:45:08;22.10;98.20
306;DHT22;137;48.578;9.180;2022-07-29T05:47:35;22.10;98.20
306;DHT22;137;48.578;9.180;2022-07-29T05:50:02;22.20;98.20
306;DHT22;137;48.578;9.180;2022-07-29T05:52:29;22.20;98.20
306;DHT22;137;48.578;9.180;2022-07-29T05:54:57;22.10;98.20
306;DHT22;137;48.578;9.180;2022-07-29T05:57:28;22.20;98.20
306;DHT22;137;48.578;9.180;2022-07-29T05:59:55;22.10;98.20
306;DHT22;137;48.578;9.180;2022-07-29T06:02:22;22.30;98.20
306;DHT22;137;48.578;9.180;2022-07-29T06:04:49;22.30;98.20
306;DHT22;137;48.578;9.180;2022-07-29T06:07:15;22.10;98.20
306;DHT22;137;48.578;9.180;2022-07-29T06:09:42;21.80;98.20
306;DHT22;137;48.578;9.180;2022-07-29T06:12:11;21.70;98.20
306;DHT22;137;48.578;9.180;2022-07-29T06:14:37;21.70;98.20
306;DHT22;137;48.578;9.180;2022-07-29T06:17:04;21.80;98.20
306;DHT22;137;48.578;9.180;2022-07-29T06:19:34;22.00;98.20
306;DHT22;137;48.578;9.180;2022-07-29T06:22:01;22.20;98.20
306;DHT22;137;48.578;9.180;2022-07-29T06:24:28;22.50;98.20
306;DHT22;137;48.578;9.180;2022-07-29T06:26:55;22.70;98.20
306;DHT22;137;48.578;9.180;2022-07-29T06:29:23;22.90;98.20
306;DHT22;137;48.578;9.180;2022-07-29T06:31:50;23.10;98.20
306;DHT22;137;48.578;9.180;2022-07-29T06:34:17;23.20;98.20
306;DHT22;137;48.578;9.180;2022-07-29T06:36:44;23.30;98.20
306;DHT22;137;48.578;9.180;2022-07-29T06:39:11;23.50;98.20
306;DHT22;137;48.578;9.180;2022-07-29T06:41:38;23.80;98.20
306;DHT22;137;48.578;9.180;2022-07-29T06:44:05;24.10;98.20
306;DHT22;137;48.578;9.180;2022-07-29T06:46:33;24.40;98.20
306;DHT22;137;48.578;9.180;2022-07-29T06:49:00;24.60;98.20
306;DHT22;137;48.578;9.180;2022-07-29T06:51:28;24.90;98.20
306;DHT22;137;48.578;9.180;2022-07-29T06:53:54;25.20;98.20
306;DHT22;137;48.578;9.180;2022-07-29T06:56:22;25.30;98.20
306;DHT22;137;48.578;9.180;2022-07-29T06:58:49;25.50;98.20
306;DHT22;137;48.578;9.180;2022-07-29T07:01:16;25.60;98.20
306;DHT22;137;48.578;9.180;2022-07-29T07:03:44;25.70;98.20
306;DHT22;137;48.578;9.180;2022-07-29T07:06:11;25.50;98.20
306;DHT22;137;48.578;9.180;2022-07-29T07:08:38;25.30;98.20
306;DHT22;137;48.578;9.180;2022-07-29T07:11:05;25.50;98.20
306;DHT22;137;48.578;9.180;2022-07-29T07:13:32;25.40;98.20
306;DHT22;137;48.578;9.180;2022-07-29T07:16:00;25.20;98.20
306;DHT22;137;48.578;9.180;2022-07-29T07:18:27;25.30;98.20
306;DHT22;137;48.578;9.180;2022-07-29T07:20:56;25.20;98.20
306;DHT22;137;48.578;9.180;2022-07-29T07:23:22;25.10;98.20
306;DHT22;137;48.578;9.180;2022-07-29T07:25:50;25.00;98.20
306;DHT22;137;48.578;9.180;2022-07-29T07:28:17;25.10;98.20
306;DHT22;137;48.578;9.180;2022-07-29T07:30:45;25.10;98.20
306;DHT22;137;48.578;9.180;2022-07-29T07:33:13;25.20;98.20
306;DHT22;137;48.578;9.180;2022-07-29T07:35:40;25.40;98.20
306;DHT22;137;48.578;9.180;2022-07-29T07:38:08;25.60;98.20
306;DHT22;137;48.578;9.180;2022-07-29T07:40:35;25.80;98.20
306;DHT22;137;48.578;9.180;2022-07-29T07:43:02;26.10;98.20
306;DHT22;137;48.578;9.180;2022-07-29T07:45:29;26.20;98.20
306;DHT22;137;48.578;9.180;2022-07-29T07:47:58;25.80;98.20
306;DHT22;137;48.578;9.180;2022-07-29T07:50:25;25.60;98.20
306;DHT22;137;48.578;9.180;2022-07-29T07:52:53;25.40;98.20
306;DHT22;137;48.578;9.180;2022-07-29T07:55:24;25.60;98.20
306;DHT22;137;48.578;9.180;2022-07-29T07:57:51;25.80;98.20
306;DHT22;137;48.578;9.180;2022-07-29T08:00:18;26.10;98.20
306;DHT22;137;48.578;9.180;2022-07-29T08:02:44;26.40;98.20
306;DHT22;137;48.578;9.180;2022-07-29T08:05:12;26.00;98.20
306;DHT22;137;48.578;9.180;2022-07-29T08:07:42;25.60;98.20
306;DHT22;137;48.578;9.180;2022-07-29T08:10:09;25.50;98.20
306;DHT22;137;48.578;9.180;2022-07-29T08:12:37;25.50;98.20
306;DHT22;137;48.578;9.180;2022-07-29T08:15:05;25.90;98.20
306;DHT22;137;48.578;9.180;2022-07-29T08:17:33;25.80;98.20
306;DHT22;137;48.578;9.180;2022-07-29T08:20:00;25.70;98.20
306;DHT22;137;48.578;9.180;2022-07-29T08:22:26;26.20;98.20
306;DHT22;137;48.578;9.180;2022-07-29T08:24:53;26.30;98.20
306;DHT22;137;48.578;9.180;2022-07-29T08:27:21;26.60;98.20
306;DHT22;137;48.578;9.180;2022-07-29T08:29:50;26.70;98.20
306;DHT22;137;48.578;9.180;2022-07-29T08:32:17;27.10;98.20
306;DHT22;137;48.578;9.180;2022-07-29T08:34:43;27.60;98.20
306;DHT22;137;48.578;9.180;2022-07-29T08:37:12;27.60;98.20
306;DHT22;137;48.578;9.180;2022-07-29T08:39:38;27.80;98.20
306;DHT22;137;48.578;9.180;2022-07-29T08:42:06;28.00;98.20
306;DHT22;137;48.578;9.180;2022-07-29T08:44:33;28.20;98.20
306;DHT22;137;48.578;9.180;2022-07-29T08:47:02;28.20;98.20
306;DHT22;137;48.578;9.180;2022-07-29T08:49:30;27.90;98.20
306;DHT22;137;48.578;9.180;2022-07-29T08:51:57;27.70;98.20
306;DHT22;137;48.578;9.180;2022-07-29T08:54:25;28.20;98.20
306;DHT22;137;48.578;9.180;2022-07-29T08:56:52;28.60;98.20
306;DHT22;137;48.578;9.180;2022-07-29T08:59:20;28.70;98.20
306;DHT22;137;48.578;9.180;2022-07-29T09:01:52;28.20;98.20
306;DHT22;137;48.578;9.180;2022-07-29T09:04:20;28.50;98.20
306;DHT22;137;48.578;9.180;2022-07-29T09:06:50;28.90;98.20
306;DHT22;137;48.578;9.180;2022-07-29T09:09:18;29.30;98.20
306;DHT22;137;48.578;9.180;2022-07-29T09:11:46;29.20;98.20
306;DHT22;137;48.578;9.180;2022-07-29T09:14:13;29.60;98.20
306;DHT22;137;48.578;9.180;2022-07-29T09:16:48;29.80;98.20
306;DHT22;137;48.578;9.180;2022-07-29T09:19:25;30.10;98.20
306;DHT22;137;48.578;9.180;2022-07-29T09:21:53;30.40;98.20
306;DHT22;137;48.578;9.180;2022-07-29T09:24:40;30.60;98.20
306;DHT22;137;48.578;9.180;2022-07-29T09:29:58;31.20;98.20
306;DHT22;137;48.578;9.180;2022-07-29T09:32:26;31.30;98.20
306;DHT22;137;48.578;9.180;2022-07-29T09:35:16;31.20;98.20
306;DHT22;137;48.578;9.180;2022-07-29T09:37:43;31.10;98.20
306;DHT22;137;48.578;9.180;2022-07-29T09:40:15;31.20;98.20
306;DHT22;137;48.578;9.180;2022-07-29T09:42:43;31.50;98.20
306;DHT22;137;48.578;9.180;2022-07-29T09:45:10;31.20;98.20
306;DHT22;137;48.578;9.180;2022-07-29T09:47:42;31.00;98.20
306;DHT22;137;48.578;9.180;2022-07-29T09:50:12;31.30;98.20
306;DHT22;137;48.578;9.180;2022-07-29T09:52:49;31.50;98.20
306;DHT22;137;48.578;9.180;2022-07-29T09:55:17;31.40;98.20
306;DHT22;137;48.578;9.180;2022-07-29T09:57:44;31.20;98.20
306;DHT22;137;48.578;9.180;2022-07-29T10:00:14;31.10;98.20
306;DHT22;137;48.578;9.180;2022-07-29T10:02:42;31.20;98.20
306;DHT22;137;48.578;9.180;2022-07-29T10:05:18;31.30;98.20
306;DHT22;137;48.578;9.180;2022-07-29T10:07:49;31.20;98.20
306;DHT22;137;48.578;9.180;2022-07-29T10:10:21;31.40;98.20
306;DHT22;137;48.578;9.180;2022-07-29T10:12:49;31.50;98.20
306;DHT22;137;48.578;9.180;2022-07-29T10:15:17;31.40;98.20
306;DHT22;137;48.578;9.180;2022-07-29T10:17:45;31.30;98.20
306;DHT22;137;48.578;9.180;2022-07-29T10:20:13;31.30;98.20
306;DHT22;137;48.578;9.180;2022-07-29T10:22:41;31.50;98.20
306;DHT22;137;48.578;9.180;2022-07-29T10:25:10;32.20;98.20
306;DHT22;137;48.578;9.180;2022-07-29T10:27:37;32.60;98.20
306;DHT22;137;48.578;9.180;2022-07-29T10:30:05;33.20;98.20
306;DHT22;137;48.578;9.180;2022-07-29T10:35:32;33.20;98.20
306;DHT22;137;48.578;9.180;2022-07-29T10:38:15;33.10;98.00
306;DHT22;137;48.578;9.180;2022-07-29T10:40:53;32.80;98.20
306;DHT22;137;48.578;9.180;2022-07-29T10:43:43;32.80;98.20
306;DHT22;137;48.578;9.180;2022-07-29T10:46:12;32.90;97.80
306;DHT22;137;48.578;9.180;2022-07-29T10:49:07;32.50;97.90
306;DHT22;137;48.578;9.180;2022-07-29T10:51:56;32.50;97.50
306;DHT22;137;48.578;9.180;2022-07-29T10:54:46;32.90;97.80
306;DHT22;137;48.578;9.180;2022-07-29T10:57:19;33.50;94.90
306;DHT22;137;48.578;9.180;2022-07-29T10:59:48;33.50;94.10
306;DHT22;137;48.578;9.180;2022-07-29T11:02:45;33.70;94.40
306;DHT22;137;48.578;9.180;2022-07-29T11:05:17;34.30;91.80
306;DHT22;137;48.578;9.180;2022-07-29T11:10:47;33.30;91.70
306;DHT22;137;48.578;9.180;2022-07-29T11:13:49;32.90;92.80
306;DHT22;137;48.578;9.180;2022-07-29T11:16:18;32.60;93.50
306;DHT22;137;48.578;9.180;2022-07-29T11:19:18;32.70;93.20
306;DHT22;137;48.578;9.180;2022-07-29T11:21:46;32.80;92.80
306;DHT22;137;48.578;9.180;2022-07-29T11:24:16;33.00;93.80
306;DHT22;137;48.578;9.180;2022-07-29T11:26:43;33.00;92.90
306;DHT22;137;48.578;9.180;2022-07-29T11:29:19;31.40;97.50
306;DHT22;137;48.578;9.180;2022-07-29T11:31:49;29.20;98.20
306;DHT22;137;48.578;9.180;2022-07-29T11:34:22;27.60;98.20
306;DHT22;137;48.578;9.180;2022-07-29T11:37:14;26.40;98.20
306;DHT22;137;48.578;9.180;2022-07-29T11:39:43;25.70;98.20
306;DHT22;137;48.578;9.180;2022-07-29T11:42:43;25.60;98.20
306;DHT22;137;48.578;9.180;2022-07-29T11:45:15;25.70;98.20
306;DHT22;137;48.578;9.180;2022-07-29T11:47:49;25.60;98.20
306;DHT22;137;48.578;9.180;2022-07-29T11:50:26;25.60;98.20
306;DHT22;137;48.578;9.180;2022-07-29T11:52:53;25.80;98.20
306;DHT22;137;48.578;9.180;2022-07-29T11:55:22;25.90;98.20
306;DHT22;137;48.578;9.180;2022-07-29T11:57:51;26.30;98.20
306;DHT22;137;48.578;9.180;2022-07-29T12:00:37;26.60;98.20
306;DHT22;137;48.578;9.180;2022-07-29T12:03:06;26.80;98.20
306;DHT22;137;48.578;9.180;2022-07-29T12:05:38;27.20;98.20
306;DHT22;137;48.578;9.180;2022-07-29T12:08:12;27.30;98.20
306;DHT22;137;48.578;9.180;2022-07-29T12:10:42;27.30;98.20
306;DHT22;137;48.578;9.180;2022-07-29T12:13:12;27.10;98.20
306;DHT22;137;48.578;9.180;2022-07-29T12:15:41;26.90;98.20
306;DHT22;137;48.578;9.180;2022-07-29T12:18:11;27.00;98.20
306;DHT22;137;48.578;9.180;2022-07-29T12:20:38;27.00;98.20
306;DHT22;137;48.578;9.180;2022-07-29T12:23:06;26.60;98.20
306;DHT22;137;48.578;9.180;2022-07-29T12:25:35;25.90;98.20
306;DHT22;137;48.578;9.180;2022-07-29T12:28:04;25.60;98.20
306;DHT22;137;48.578;9.180;2022-07-29T12:30:42;25.40;98.20
306;DHT22;137;48.578;9.180;2022-07-29T12:33:11;25.20;98.20
306;DHT22;137;48.578;9.180;2022-07-29T12:35:39;24.80;98.20
306;DHT22;137;48.578;9.180;2022-07-29T12:38:06;24.70;98.20
306;DHT22;137;48.578;9.180;2022-07-29T12:40:33;24.50;98.20
306;DHT22;137;48.578;9.180;2022-07-29T12:43:08;24.40;98.20
306;DHT22;137;48.578;9.180;2022-07-29T12:45:36;24.50;98.20
306;DHT22;137;48.578;9.180;2022-07-29T12:48:06;24.80;98.20
306;DHT22;137;48.578;9.180;2022-07-29T12:50:36;24.90;98.20
306;DHT22;137;48.578;9.180;2022-07-29T12:53:13;25.30;98.20
306;DHT22;137;48.578;9.180;2022-07-29T12:55:42;25.60;98.20
306;DHT22;137;48.578;9.180;2022-07-29T12:58:10;26.10;98.20
306;DHT22;137;48.578;9.180;2022-07-29T13:00:37;26.70;98.20
306;DHT22;137;48.578;9.180;2022-07-29T13:03:05;27.40;98.20
306;DHT22;137;48.578;9.180;2022-07-29T13:05:39;28.30;98.20
306;DHT22;137;48.578;9.180;2022-07-29T13:08:13;29.20;98.20
306;DHT22;137;48.578;9.180;2022-07-29T13:10:43;29.70;98.20
306;DHT22;137;48.578;9.180;2022-07-29T13:13:12;29.50;98.20
306;DHT22;137;48.578;9.180;2022-07-29T13:15:41;29.30;98.20
306;DHT22;137;48.578;9.180;2022-07-29T13:18:28;29.20;98.20
306;DHT22;137;48.578;9.180;2022-07-29T13:20:55;29.30;98.20
306;DHT22;137;48.578;9.180;2022-07-29T13:23:23;28.60;98.20
306;DHT22;137;48.578;9.180;2022-07-29T13:25:50;28.00;98.20
306;DHT22;137;48.578;9.180;2022-07-29T13:28:17;27.10;98.20
306;DHT22;137;48.578;9.180;2022-07-29T13:30:44;26.50;98.20
306;DHT22;137;48.578;9.180;2022-07-29T13:33:11;26.20;98.20
306;DHT22;137;48.578;9.180;2022-07-29T13:35:39;25.60;98.20
306;DHT22;137;48.578;9.180;2022-07-29T13:38:20;24.90;98.20
306;DHT22;137;48.578;9.180;2022-07-29T13:40:48;24.70;98.20
306;DHT22;137;48.578;9.180;2022-07-29T13:43:29;24.60;98.20
306;DHT22;137;48.578;9.180;2022-07-29T13:46:01;24.90;98.20
306;DHT22;137;48.578;9.180;2022-07-29T13:48:42;25.10;98.20
306;DHT22;137;48.578;9.180;2022-07-29T14:10:27;25.90;98.20
306;DHT22;137;48.578;9.180;2022-07-29T14:13:16;26.10;98.20
306;DHT22;137;48.578;9.180;2022-07-29T14:15:46;26.30;98.20
306;DHT22;137;48.578;9.180;2022-07-29T14:20:54;26.70;98.20
306;DHT22;137;48.578;9.180;2022-07-29T14:23:37;27.10;98.20
306;DHT22;137;48.578;9.180;2022-07-29T14:26:20;27.50;98.20
306;DHT22;137;48.578;9.180;2022-07-29T14:28:50;27.50;98.20
306;DHT22;137;48.578;9.180;2022-07-29T14:34:27;27.40;98.20
306;DHT22;137;48.578;9.180;2022-07-29T14:36:56;27.30;98.20
306;DHT22;137;48.578;9.180;2022-07-29T14:39:25;27.10;98.20
306;DHT22;137;48.578;9.180;2022-07-29T14:42:08;27.20;98.20
306;DHT22;137;48.578;9.180;2022-07-29T14:44:37;27.30;98.20
306;DHT22;137;48.578;9.180;2022-07-29T14:47:07;27.20;98.20
306;DHT22;137;48.578;9.180;2022-07-29T14:52:58;27.40;98.20
306;DHT22;137;48.578;9.180;2022-07-29T14:55:25;27.10;98.20
306;DHT22;137;48.578;9.180;2022-07-29T14:57:54;27.00;98.20
306;DHT22;137;48.578;9.180;2022-07-29T15:00:21;26.90;98.20
306;DHT22;137;48.578;9.180;2022-07-29T15:02:49;26.60;98.20
306;DHT22;137;48.578;9.180;2022-07-29T15:05:18;26.60;98.20
306;DHT22;137;48.578;9.180;2022-07-29T15:07:45;26.50;98.20
306;DHT22;137;48.578;9.180;2022-07-29T15:10:12;26.50;98.20
306;DHT22;137;48.578;9.180;2022-07-29T15:12:39;26.50;98.20
306;DHT22;137;48.578;9.180;2022-07-29T15:15:07;26.40;98.20
306;DHT22;137;48.578;9.180;2022-07-29T15:17:35;26.40;98.20
306;DHT22;137;48.578;9.180;2022-07-29T15:20:02;26.30;98.20
306;DHT22;137;48.578;9.180;2022-07-29T15:22:30;26.30;98.20
306;DHT22;137;48.578;9.180;2022-07-29T15:24:57;26.50;98.20
306;DHT22;137;48.578;9.180;2022-07-29T15:27:24;26.60;98.20
306;DHT22;137;48.578;9.180;2022-07-29T15:29:51;26.80;98.20
306;DHT22;137;48.578;9.180;2022-07-29T15:32:19;26.80;98.20
306;DHT22;137;48.578;9.180;2022-07-29T15:34:46;26.70;98.20
306;DHT22;137;48.578;9.180;2022-07-29T15:37:13;26.70;98.20
306;DHT22;137;48.578;9.180;2022-07-29T15:39:40;26.60;98.20
306;DHT22;137;48.578;9.180;2022-07-29T15:42:07;26.70;98.20
306;DHT22;137;48.578;9.180;2022-07-29T15:44:34;26.70;98.20
306;DHT22;137;48.578;9.180;2022-07-29T15:47:02;26.70;98.20
306;DHT22;137;48.578;9.180;2022-07-29T15:49:31;26.80;98.20
306;DHT22;137;48.578;9.180;2022-07-29T15:51:58;26.70;98.20
306;DHT22;137;48.578;9.180;2022-07-29T15:54:26;26.70;98.20
306;DHT22;137;48.578;9.180;2022-07-29T15:56:54;26.60;98.20
306;DHT22;137;48.578;9.180;2022-07-29T15:59:21;26.50;98.20
306;DHT22;137;48.578;9.180;2022-07-29T16:01:48;26.40;98.20
306;DHT22;137;48.578;9.180;2022-07-29T16:04:16;26.40;98.20
306;DHT22;137;48.578;9.180;2022-07-29T16:06:46;26.30;98.20
306;DHT22;137;48.578;9.180;2022-07-29T16:09:13;26.40;98.20
306;DHT22;137;48.578;9.180;2022-07-29T16:11:40;26.50;98.20
306;DHT22;137;48.578;9.180;2022-07-29T16:14:09;26.50;98.20
306;DHT22;137;48.578;9.180;2022-07-29T16:16:37;26.50;98.20
306;DHT22;137;48.578;9.180;2022-07-29T16:19:04;26.50;98.20
306;DHT22;137;48.578;9.180;2022-07-29T16:21:31;26.70;98.20
306;DHT22;137;48.578;9.180;2022-07-29T16:24:01;26.80;98.20
306;DHT22;137;48.578;9.180;2022-07-29T16:26:28;26.90;98.20
306;DHT22;137;48.578;9.180;2022-07-29T16:28:55;27.00;98.20
306;DHT22;137;48.578;9.180;2022-07-29T16:31:22;27.10;98.20
306;DHT22;137;48.578;9.180;2022-07-29T16:33:49;27.20;98.20
306;DHT22;137;48.578;9.180;2022-07-29T16:36:17;27.30;98.20
306;DHT22;137;48.578;9.180;2022-07-29T16:38:44;27.30;98.20
306;DHT22;137;48.578;9.180;2022-07-29T16:41:14;27.00;98.20
306;DHT22;137;48.578;9.180;2022-07-29T16:43:42;27.10;98.20
306;DHT22;137;48.578;9.180;2022-07-29T16:46:10;27.20;98.20
306;DHT22;137;48.578;9.180;2022-07-29T16:48:37;27.20;98.20
306;DHT22;137;48.578;9.180;2022-07-29T16:51:04;27.20;98.20
306;DHT22;137;48.578;9.180;2022-07-29T16:53:31;27.20;98.20
306;DHT22;137;48.578;9.180;2022-07-29T16:55:58;27.10;98.20
306;DHT22;137;48.578;9.180;2022-07-29T16:58:27;27.00;98.20
306;DHT22;137;48.578;9.180;2022-07-29T17:00:54;26.90;98.20
306;DHT22;137;48.578;9.180;2022-07-29T17:03:21;26.80;98.20
306;DHT22;137;48.578;9.180;2022-07-29T17:05:48;26.90;98.20
306;DHT22;137;48.578;9.180;2022-07-29T17:08:15;26.60;98.20
306;DHT22;137;48.578;9.180;2022-07-29T17:10:42;26.60;98.20
306;DHT22;137;48.578;9.180;2022-07-29T17:13:08;26.60;98.20
306;DHT22;137;48.578;9.180;2022-07-29T17:15:37;26.60;98.20
306;DHT22;137;48.578;9.180;2022-07-29T17:18:04;26.60;98.20
306;DHT22;137;48.578;9.180;2022-07-29T17:20:30;26.70;98.20
306;DHT22;137;48.578;9.180;2022-07-29T17:23:01;26.70;98.20
306;DHT22;137;48.578;9.180;2022-07-29T17:25:28;26.70;98.20
306;DHT22;137;48.578;9.180;2022-07-29T17:27:55;26.70;98.20